sensor_id;sensor_type;location;lat;lon;timestamp;P1;durP1;ratioP1;P2;durP2;ratioP2
57593;SDS011;43423;46.510;6.686;2022-10-22T00:00:00;6.55;;;1.80;;
57593;SDS011;43423;46.510;6.686;2022-10-22T00:02:25;6.13;;;1.50;;
57593;SDS011;43423;46.510;6.686;2022-10-22T00:04:52;3.33;;;1.75;;
57593;SDS011;43423;46.510;6.686;2022-10-22T00:07:19;6.18;;;1.88;;
57593;SDS011;43423;46.510;6.686;2022-10-22T00:09:45;3.88;;;1.60;;
57593;SDS011;43423;46.510;6.686;2022-10-22T00:12:11;5.53;;;1.85;;
57593;SDS011;43423;46.510;6.686;2022-10-22T00:14:37;7.22;;;2.17;;
57593;SDS011;43423;46.510;6.686;2022-10-22T00:17:03;5.88;;;1.75;;
57593;SDS011;43423;46.510;6.686;2022-10-22T00:19:29;3.03;;;1.95;;
57593;SDS011;43423;46.510;6.686;2022-10-22T00:21:54;5.68;;;1.85;;
57593;SDS011;43423;46.510;6.686;2022-10-22T00:24:20;6.15;;;1.40;;
57593;SDS011;43423;46.510;6.686;2022-10-22T00:26:45;2.63;;;1.55;;
57593;SDS011;43423;46.510;6.686;2022-10-22T00:29:12;3.83;;;1.40;;
57593;SDS011;43423;46.510;6.686;2022-10-22T00:31:37;8.68;;;1.63;;
57593;SDS011;43423;46.510;6.686;2022-10-22T00:34:03;3.10;;;1.20;;
57593;SDS011;43423;46.510;6.686;2022-10-22T00:36:28;2.67;;;1.30;;
57593;SDS011;43423;46.510;6.686;2022-10-22T00:38:54;4.22;;;1.10;;
57593;SDS011;43423;46.510;6.686;2022-10-22T00:41:19;2.60;;;0.90;;
57593;SDS011;43423;46.510;6.686;2022-10-22T00:43:55;2.75;;;1.23;;
57593;SDS011;43423;46.510;6.686;2022-10-22T00:46:25;2.85;;;1.10;;
57593;SDS011;43423;46.510;6.686;2022-10-22T00:48:51;3.08;;;0.70;;
57593;SDS011;43423;46.510;6.686;2022-10-22T00:51:19;0.75;;;0.60;;
57593;SDS011;43423;46.510;6.686;2022-10-22T00:53:47;1.10;;;0.70;;
57593;SDS011;43423;46.510;6.686;2022-10-22T00:58:44;4.15;;;1.05;;
57593;SDS011;43423;46.510;6.686;2022-10-22T01:01:17;1.08;;;0.77;;
57593;SDS011;43423;46.510;6.686;2022-10-22T01:03:47;1.60;;;0.85;;
57593;SDS011;43423;46.510;6.686;2022-10-22T01:06:34;0.82;;;0.70;;
57593;SDS011;43423;46.510;6.686;2022-10-22T01:16:54;2.30;;;0.90;;
57593;SDS011;43423;46.510;6.686;2022-10-22T01:22:20;2.85;;;0.98;;
57593;SDS011;43423;46.510;6.686;2022-10-22T01:30:30;2.47;;;1.05;;
57593;SDS011;43423;46.510;6.686;2022-10-22T01:32:57;4.38;;;0.90;;
57593;SDS011;43423;46.510;6.686;2022-10-22T01:35:28;1.10;;;0.63;;
57593;SDS011;43423;46.510;6.686;2022-10-22T01:37:59;1.77;;;0.60;;
57593;SDS011;43423;46.510;6.686;2022-10-22T01:40:28;2.63;;;0.93;;
57593;SDS011;43423;46.510;6.686;2022-10-22T01:42:58;6.45;;;0.95;;
57593;SDS011;43423;46.510;6.686;2022-10-22T01:45:30;2.20;;;0.70;;
57593;SDS011;43423;46.510;6.686;2022-10-22T01:48:08;1.35;;;1.02;;
57593;SDS011;43423;46.510;6.686;2022-10-22T01:56:01;2.67;;;0.63;;
57593;SDS011;43423;46.510;6.686;2022-10-22T01:58:36;1.20;;;0.63;;
57593;SDS011;43423;46.510;6.686;2022-10-22T02:01:22;1.60;;;0.77;;
57593;SDS011;43423;46.510;6.686;2022-10-22T02:03:59;1.67;;;0.60;;
57593;SDS011;43423;46.510;6.686;2022-10-22T02:06:30;2.70;;;0.77;;
57593;SDS011;43423;46.510;6.686;2022-10-22T02:08:57;2.80;;;0.80;;
57593;SDS011;43423;46.510;6.686;2022-10-22T02:11:25;3.25;;;0.98;;
57593;SDS011;43423;46.510;6.686;2022-10-22T02:13:52;4.47;;;0.77;;
57593;SDS011;43423;46.510;6.686;2022-10-22T02:16:28;3.45;;;1.23;;
57593;SDS011;43423;46.510;6.686;2022-10-22T02:18:58;1.20;;;0.88;;
57593;SDS011;43423;46.510;6.686;2022-10-22T02:21:28;4.23;;;1.23;;
57593;SDS011;43423;46.510;6.686;2022-10-22T02:23:54;8.13;;;0.90;;
57593;SDS011;43423;46.510;6.686;2022-10-22T02:26:26;7.20;;;1.67;;
57593;SDS011;43423;46.510;6.686;2022-10-22T02:29:42;6.50;;;0.90;;
57593;SDS011;43423;46.510;6.686;2022-10-22T02:31:54;1.27;;;0.75;;
57593;SDS011;43423;46.510;6.686;2022-10-22T02:34:23;2.08;;;0.93;;
57593;SDS011;43423;46.510;6.686;2022-10-22T02:36:53;1.45;;;0.75;;
57593;SDS011;43423;46.510;6.686;2022-10-22T02:39:20;4.60;;;1.10;;
57593;SDS011;43423;46.510;6.686;2022-10-22T02:41:46;2.53;;;0.95;;
57593;SDS011;43423;46.510;6.686;2022-10-22T02:44:12;4.82;;;0.90;;
57593;SDS011;43423;46.510;6.686;2022-10-22T02:46:38;4.40;;;1.10;;
57593;SDS011;43423;46.510;6.686;2022-10-22T02:49:06;7.68;;;1.45;;
57593;SDS011;43423;46.510;6.686;2022-10-22T02:51:31;3.38;;;1.20;;
57593;SDS011;43423;46.510;6.686;2022-10-22T02:53:57;3.28;;;1.00;;
57593;SDS011;43423;46.510;6.686;2022-10-22T02:56:22;1.65;;;1.33;;
57593;SDS011;43423;46.510;6.686;2022-10-22T02:58:48;4.63;;;1.17;;
57593;SDS011;43423;46.510;6.686;2022-10-22T03:01:14;2.35;;;1.08;;
57593;SDS011;43423;46.510;6.686;2022-10-22T03:03:39;3.25;;;1.35;;
57593;SDS011;43423;46.510;6.686;2022-10-22T03:06:05;3.10;;;1.40;;
57593;SDS011;43423;46.510;6.686;2022-10-22T03:08:30;2.20;;;1.33;;
57593;SDS011;43423;46.510;6.686;2022-10-22T03:10:56;5.03;;;1.30;;
57593;SDS011;43423;46.510;6.686;2022-10-22T03:13:21;4.07;;;1.50;;
57593;SDS011;43423;46.510;6.686;2022-10-22T03:15:48;6.88;;;1.70;;
57593;SDS011;43423;46.510;6.686;2022-10-22T03:18:14;3.88;;;1.63;;
57593;SDS011;43423;46.510;6.686;2022-10-22T03:20:40;2.10;;;1.42;;
57593;SDS011;43423;46.510;6.686;2022-10-22T03:23:06;4.32;;;1.42;;
57593;SDS011;43423;46.510;6.686;2022-10-22T03:25:31;3.10;;;1.33;;
57593;SDS011;43423;46.510;6.686;2022-10-22T03:28:00;6.53;;;1.60;;
57593;SDS011;43423;46.510;6.686;2022-10-22T03:32:55;3.30;;;1.33;;
57593;SDS011;43423;46.510;6.686;2022-10-22T03:35:20;4.10;;;1.10;;
57593;SDS011;43423;46.510;6.686;2022-10-22T03:37:46;5.75;;;1.30;;
57593;SDS011;43423;46.510;6.686;2022-10-22T03:40:12;3.63;;;1.50;;
57593;SDS011;43423;46.510;6.686;2022-10-22T03:42:38;2.13;;;1.60;;
57593;SDS011;43423;46.510;6.686;2022-10-22T03:45:05;1.90;;;1.38;;
57593;SDS011;43423;46.510;6.686;2022-10-22T03:47:31;1.77;;;1.40;;
57593;SDS011;43423;46.510;6.686;2022-10-22T03:49:57;2.97;;;1.65;;
57593;SDS011;43423;46.510;6.686;2022-10-22T03:52:22;3.90;;;1.60;;
57593;SDS011;43423;46.510;6.686;2022-10-22T03:54:48;15.77;;;3.67;;
57593;SDS011;43423;46.510;6.686;2022-10-22T03:57:13;9.55;;;1.85;;
57593;SDS011;43423;46.510;6.686;2022-10-22T03:59:43;3.60;;;1.35;;
57593;SDS011;43423;46.510;6.686;2022-10-22T04:02:10;4.95;;;1.38;;
57593;SDS011;43423;46.510;6.686;2022-10-22T04:04:37;1.52;;;1.40;;
57593;SDS011;43423;46.510;6.686;2022-10-22T04:07:03;2.97;;;1.40;;
57593;SDS011;43423;46.510;6.686;2022-10-22T04:09:30;2.80;;;2.00;;
57593;SDS011;43423;46.510;6.686;2022-10-22T04:11:56;1.95;;;1.30;;
57593;SDS011;43423;46.510;6.686;2022-10-22T04:14:22;2.65;;;1.38;;
57593;SDS011;43423;46.510;6.686;2022-10-22T04:16:48;5.38;;;1.45;;
57593;SDS011;43423;46.510;6.686;2022-10-22T04:19:13;3.50;;;1.20;;
57593;SDS011;43423;46.510;6.686;2022-10-22T04:21:39;2.65;;;0.80;;
57593;SDS011;43423;46.510;6.686;2022-10-22T04:24:05;4.32;;;1.20;;
57593;SDS011;43423;46.510;6.686;2022-10-22T04:26:30;2.53;;;1.30;;
57593;SDS011;43423;46.510;6.686;2022-10-22T04:28:56;1.98;;;1.17;;
57593;SDS011;43423;46.510;6.686;2022-10-22T04:31:23;3.17;;;1.33;;
57593;SDS011;43423;46.510;6.686;2022-10-22T04:33:53;2.65;;;1.30;;
57593;SDS011;43423;46.510;6.686;2022-10-22T04:36:20;1.55;;;1.02;;
57593;SDS011;43423;46.510;6.686;2022-10-22T04:38:50;1.80;;;1.17;;
57593;SDS011;43423;46.510;6.686;2022-10-22T04:43:45;4.82;;;1.38;;
57593;SDS011;43423;46.510;6.686;2022-10-22T04:46:11;1.25;;;1.02;;
57593;SDS011;43423;46.510;6.686;2022-10-22T04:48:38;2.05;;;1.00;;
57593;SDS011;43423;46.510;6.686;2022-10-22T04:51:06;4.15;;;1.10;;
57593;SDS011;43423;46.510;6.686;2022-10-22T04:53:33;1.30;;;1.00;;
57593;SDS011;43423;46.510;6.686;2022-10-22T04:58:35;1.08;;;0.80;;
57593;SDS011;43423;46.510;6.686;2022-10-22T05:01:36;4.93;;;1.13;;
57593;SDS011;43423;46.510;6.686;2022-10-22T05:03:59;2.78;;;1.05;;
57593;SDS011;43423;46.510;6.686;2022-10-22T05:06:27;1.80;;;0.90;;
57593;SDS011;43423;46.510;6.686;2022-10-22T05:08:55;2.05;;;1.00;;
57593;SDS011;43423;46.510;6.686;2022-10-22T05:11:24;2.30;;;1.20;;
57593;SDS011;43423;46.510;6.686;2022-10-22T05:13:52;1.88;;;1.00;;
57593;SDS011;43423;46.510;6.686;2022-10-22T05:16:20;4.55;;;2.03;;
57593;SDS011;43423;46.510;6.686;2022-10-22T05:18:45;3.92;;;2.05;;
57593;SDS011;43423;46.510;6.686;2022-10-22T05:21:20;3.53;;;1.90;;
57593;SDS011;43423;46.510;6.686;2022-10-22T05:23:47;3.45;;;1.13;;
57593;SDS011;43423;46.510;6.686;2022-10-22T05:26:14;4.57;;;1.70;;
57593;SDS011;43423;46.510;6.686;2022-10-22T05:28:42;1.52;;;1.02;;
57593;SDS011;43423;46.510;6.686;2022-10-22T05:31:09;3.65;;;1.35;;
57593;SDS011;43423;46.510;6.686;2022-10-22T05:33:36;3.50;;;1.10;;
57593;SDS011;43423;46.510;6.686;2022-10-22T05:36:03;2.72;;;1.45;;
57593;SDS011;43423;46.510;6.686;2022-10-22T05:38:30;2.70;;;1.30;;
57593;SDS011;43423;46.510;6.686;2022-10-22T05:41:03;1.23;;;1.02;;
57593;SDS011;43423;46.510;6.686;2022-10-22T05:43:30;2.92;;;1.30;;
57593;SDS011;43423;46.510;6.686;2022-10-22T05:45:59;5.03;;;1.73;;
57593;SDS011;43423;46.510;6.686;2022-10-22T05:48:27;2.80;;;1.20;;
57593;SDS011;43423;46.510;6.686;2022-10-22T05:50:52;5.75;;;1.15;;
57593;SDS011;43423;46.510;6.686;2022-10-22T05:53:18;1.77;;;1.05;;
57593;SDS011;43423;46.510;6.686;2022-10-22T05:55:44;2.95;;;1.17;;
57593;SDS011;43423;46.510;6.686;2022-10-22T05:58:10;4.10;;;0.98;;
57593;SDS011;43423;46.510;6.686;2022-10-22T06:00:36;1.77;;;1.20;;
57593;SDS011;43423;46.510;6.686;2022-10-22T06:03:02;3.17;;;1.20;;
57593;SDS011;43423;46.510;6.686;2022-10-22T06:05:27;1.95;;;1.23;;
57593;SDS011;43423;46.510;6.686;2022-10-22T06:07:53;5.05;;;1.20;;
57593;SDS011;43423;46.510;6.686;2022-10-22T06:10:20;2.42;;;1.27;;
57593;SDS011;43423;46.510;6.686;2022-10-22T06:12:46;2.83;;;1.40;;
57593;SDS011;43423;46.510;6.686;2022-10-22T06:15:13;5.15;;;1.30;;
57593;SDS011;43423;46.510;6.686;2022-10-22T06:17:42;1.55;;;1.45;;
57593;SDS011;43423;46.510;6.686;2022-10-22T06:20:08;1.48;;;1.15;;
57593;SDS011;43423;46.510;6.686;2022-10-22T06:22:34;2.95;;;1.25;;
57593;SDS011;43423;46.510;6.686;2022-10-22T06:25:00;2.67;;;1.30;;
57593;SDS011;43423;46.510;6.686;2022-10-22T06:27:26;3.83;;;1.50;;
57593;SDS011;43423;46.510;6.686;2022-10-22T06:29:51;3.47;;;1.60;;
57593;SDS011;43423;46.510;6.686;2022-10-22T06:32:16;5.80;;;2.20;;
57593;SDS011;43423;46.510;6.686;2022-10-22T06:34:42;4.18;;;1.60;;
57593;SDS011;43423;46.510;6.686;2022-10-22T06:37:08;4.63;;;1.63;;
57593;SDS011;43423;46.510;6.686;2022-10-22T06:39:34;2.58;;;1.30;;
57593;SDS011;43423;46.510;6.686;2022-10-22T06:42:00;4.15;;;1.27;;
57593;SDS011;43423;46.510;6.686;2022-10-22T06:44:26;4.28;;;1.58;;
57593;SDS011;43423;46.510;6.686;2022-10-22T06:46:51;4.22;;;1.85;;
57593;SDS011;43423;46.510;6.686;2022-10-22T06:49:18;1.85;;;1.23;;
57593;SDS011;43423;46.510;6.686;2022-10-22T06:51:44;2.80;;;1.20;;
57593;SDS011;43423;46.510;6.686;2022-10-22T06:54:13;6.93;;;1.90;;
57593;SDS011;43423;46.510;6.686;2022-10-22T06:56:39;5.80;;;1.40;;
57593;SDS011;43423;46.510;6.686;2022-10-22T06:59:05;2.47;;;1.13;;
57593;SDS011;43423;46.510;6.686;2022-10-22T07:01:31;5.65;;;1.50;;
57593;SDS011;43423;46.510;6.686;2022-10-22T07:03:58;5.10;;;1.00;;
57593;SDS011;43423;46.510;6.686;2022-10-22T07:06:25;1.38;;;0.90;;
57593;SDS011;43423;46.510;6.686;2022-10-22T07:08:52;2.60;;;0.90;;
57593;SDS011;43423;46.510;6.686;2022-10-22T07:11:20;2.60;;;0.80;;
57593;SDS011;43423;46.510;6.686;2022-10-22T07:13:48;2.85;;;1.00;;
57593;SDS011;43423;46.510;6.686;2022-10-22T07:16:14;1.73;;;0.90;;
57593;SDS011;43423;46.510;6.686;2022-10-22T07:18:41;2.50;;;1.08;;
57593;SDS011;43423;46.510;6.686;2022-10-22T07:21:07;1.02;;;0.90;;
57593;SDS011;43423;46.510;6.686;2022-10-22T07:23:34;3.25;;;0.82;;
57593;SDS011;43423;46.510;6.686;2022-10-22T07:26:00;3.00;;;1.00;;
57593;SDS011;43423;46.510;6.686;2022-10-22T07:28:30;0.90;;;0.73;;
57593;SDS011;43423;46.510;6.686;2022-10-22T07:30:58;2.20;;;0.82;;
57593;SDS011;43423;46.510;6.686;2022-10-22T07:33:25;1.77;;;0.73;;
57593;SDS011;43423;46.510;6.686;2022-10-22T07:35:55;1.85;;;1.10;;
57593;SDS011;43423;46.510;6.686;2022-10-22T07:38:23;3.08;;;0.80;;
57593;SDS011;43423;46.510;6.686;2022-10-22T07:40:48;1.42;;;0.90;;
57593;SDS011;43423;46.510;6.686;2022-10-22T07:43:14;1.95;;;1.00;;
57593;SDS011;43423;46.510;6.686;2022-10-22T07:45:39;2.38;;;1.08;;
57593;SDS011;43423;46.510;6.686;2022-10-22T07:48:05;3.35;;;1.20;;
57593;SDS011;43423;46.510;6.686;2022-10-22T07:50:31;4.70;;;1.75;;
57593;SDS011;43423;46.510;6.686;2022-10-22T07:52:57;2.75;;;1.10;;
57593;SDS011;43423;46.510;6.686;2022-10-22T07:55:23;3.83;;;2.05;;
57593;SDS011;43423;46.510;6.686;2022-10-22T07:57:48;2.78;;;1.00;;
57593;SDS011;43423;46.510;6.686;2022-10-22T08:00:14;1.00;;;0.90;;
57593;SDS011;43423;46.510;6.686;2022-10-22T08:02:40;3.88;;;1.10;;
57593;SDS011;43423;46.510;6.686;2022-10-22T08:05:05;1.58;;;1.00;;
57593;SDS011;43423;46.510;6.686;2022-10-22T08:07:32;1.80;;;0.80;;
57593;SDS011;43423;46.510;6.686;2022-10-22T08:09:57;2.15;;;0.65;;
57593;SDS011;43423;46.510;6.686;2022-10-22T08:12:23;4.85;;;0.80;;
57593;SDS011;43423;46.510;6.686;2022-10-22T08:14:48;0.90;;;0.60;;
57593;SDS011;43423;46.510;6.686;2022-10-22T08:17:14;0.50;;;0.40;;
57593;SDS011;43423;46.510;6.686;2022-10-22T08:19:39;1.65;;;0.60;;
57593;SDS011;43423;46.510;6.686;2022-10-22T08:22:05;2.83;;;0.98;;
57593;SDS011;43423;46.510;6.686;2022-10-22T08:24:30;2.03;;;0.70;;
57593;SDS011;43423;46.510;6.686;2022-10-22T08:26:56;1.25;;;0.70;;
57593;SDS011;43423;46.510;6.686;2022-10-22T08:29:22;2.72;;;0.60;;
57593;SDS011;43423;46.510;6.686;2022-10-22T08:31:48;0.93;;;0.82;;
57593;SDS011;43423;46.510;6.686;2022-10-22T08:34:15;2.25;;;0.82;;
57593;SDS011;43423;46.510;6.686;2022-10-22T08:36:41;0.57;;;0.57;;
57593;SDS011;43423;46.510;6.686;2022-10-22T08:39:06;3.13;;;0.70;;
57593;SDS011;43423;46.510;6.686;2022-10-22T08:41:34;3.03;;;0.82;;
57593;SDS011;43423;46.510;6.686;2022-10-22T08:49:56;2.10;;;0.60;;
57593;SDS011;43423;46.510;6.686;2022-10-22T08:52:24;0.60;;;0.57;;
57593;SDS011;43423;46.510;6.686;2022-10-22T08:54:51;3.13;;;0.70;;
57593;SDS011;43423;46.510;6.686;2022-10-22T09:00:00;1.30;;;0.73;;
57593;SDS011;43423;46.510;6.686;2022-10-22T09:07:57;1.98;;;0.70;;
57593;SDS011;43423;46.510;6.686;2022-10-22T09:10:32;2.55;;;0.55;;
57593;SDS011;43423;46.510;6.686;2022-10-22T09:13:00;0.60;;;0.52;;
57593;SDS011;43423;46.510;6.686;2022-10-22T09:15:26;0.82;;;0.50;;
57593;SDS011;43423;46.510;6.686;2022-10-22T09:18:02;0.77;;;0.50;;
57593;SDS011;43423;46.510;6.686;2022-10-22T09:20:42;1.25;;;0.57;;
57593;SDS011;43423;46.510;6.686;2022-10-22T09:23:19;0.90;;;0.70;;
57593;SDS011;43423;46.510;6.686;2022-10-22T09:25:46;0.60;;;0.40;;
57593;SDS011;43423;46.510;6.686;2022-10-22T09:28:13;1.17;;;0.60;;
57593;SDS011;43423;46.510;6.686;2022-10-22T09:30:39;1.13;;;0.57;;
57593;SDS011;43423;46.510;6.686;2022-10-22T09:35:35;0.82;;;0.60;;
57593;SDS011;43423;46.510;6.686;2022-10-22T09:38:10;1.30;;;0.40;;
57593;SDS011;43423;46.510;6.686;2022-10-22T09:40:42;1.60;;;0.57;;
57593;SDS011;43423;46.510;6.686;2022-10-22T09:43:18;1.75;;;0.55;;
57593;SDS011;43423;46.510;6.686;2022-10-22T09:45:44;1.45;;;0.60;;
57593;SDS011;43423;46.510;6.686;2022-10-22T09:50:46;0.60;;;0.60;;
57593;SDS011;43423;46.510;6.686;2022-10-22T09:55:56;3.33;;;0.35;;
57593;SDS011;43423;46.510;6.686;2022-10-22T09:58:23;1.48;;;0.60;;
57593;SDS011;43423;46.510;6.686;2022-10-22T10:00:54;0.68;;;0.40;;
57593;SDS011;43423;46.510;6.686;2022-10-22T10:03:28;2.13;;;0.70;;
57593;SDS011;43423;46.510;6.686;2022-10-22T10:05:58;0.73;;;0.50;;
57593;SDS011;43423;46.510;6.686;2022-10-22T10:08:25;2.50;;;0.57;;
57593;SDS011;43423;46.510;6.686;2022-10-22T10:16:41;2.33;;;0.60;;
57593;SDS011;43423;46.510;6.686;2022-10-22T10:19:21;1.65;;;0.60;;
57593;SDS011;43423;46.510;6.686;2022-10-22T10:25:02;1.05;;;0.60;;
57593;SDS011;43423;46.510;6.686;2022-10-22T10:30:43;1.95;;;0.60;;
57593;SDS011;43423;46.510;6.686;2022-10-22T10:36:10;1.40;;;0.63;;
57593;SDS011;43423;46.510;6.686;2022-10-22T10:49:46;0.60;;;0.60;;
57593;SDS011;43423;46.510;6.686;2022-10-22T11:06:35;1.30;;;0.60;;
57593;SDS011;43423;46.510;6.686;2022-10-22T11:09:10;0.77;;;0.60;;
57593;SDS011;43423;46.510;6.686;2022-10-22T11:11:48;3.75;;;0.60;;
57593;SDS011;43423;46.510;6.686;2022-10-22T11:16:53;1.27;;;0.38;;
57593;SDS011;43423;46.510;6.686;2022-10-22T11:19:26;2.35;;;0.35;;
57593;SDS011;43423;46.510;6.686;2022-10-22T11:22:43;1.02;;;0.50;;
57593;SDS011;43423;46.510;6.686;2022-10-22T11:25:26;2.35;;;0.50;;
57593;SDS011;43423;46.510;6.686;2022-10-22T11:27:48;1.75;;;0.38;;
57593;SDS011;43423;46.510;6.686;2022-10-22T11:30:21;0.98;;;0.40;;
57593;SDS011;43423;46.510;6.686;2022-10-22T11:32:53;1.02;;;0.70;;
57593;SDS011;43423;46.510;6.686;2022-10-22T11:35:24;0.40;;;0.40;;
57593;SDS011;43423;46.510;6.686;2022-10-22T11:37:53;0.40;;;0.40;;
57593;SDS011;43423;46.510;6.686;2022-10-22T11:40:36;0.98;;;0.50;;
57593;SDS011;43423;46.510;6.686;2022-10-22T11:43:08;1.10;;;0.38;;
57593;SDS011;43423;46.510;6.686;2022-10-22T11:45:36;0.65;;;0.60;;
57593;SDS011;43423;46.510;6.686;2022-10-22T11:48:15;1.30;;;0.60;;
57593;SDS011;43423;46.510;6.686;2022-10-22T11:53:30;0.90;;;0.40;;
57593;SDS011;43423;46.510;6.686;2022-10-22T12:19:16;1.95;;;0.60;;
57593;SDS011;43423;46.510;6.686;2022-10-22T12:21:54;0.43;;;0.40;;
57593;SDS011;43423;46.510;6.686;2022-10-22T12:24:23;1.55;;;0.73;;
57593;SDS011;43423;46.510;6.686;2022-10-22T12:26:50;3.95;;;0.90;;
57593;SDS011;43423;46.510;6.686;2022-10-22T12:29:17;1.10;;;0.50;;
57593;SDS011;43423;46.510;6.686;2022-10-22T12:31:45;1.17;;;0.73;;
57593;SDS011;43423;46.510;6.686;2022-10-22T12:34:12;1.35;;;0.60;;
57593;SDS011;43423;46.510;6.686;2022-10-22T12:36:43;2.03;;;0.70;;
57593;SDS011;43423;46.510;6.686;2022-10-22T12:39:14;1.33;;;0.43;;
57593;SDS011;43423;46.510;6.686;2022-10-22T12:41:41;1.95;;;0.60;;
57593;SDS011;43423;46.510;6.686;2022-10-22T12:44:09;4.72;;;1.15;;
57593;SDS011;43423;46.510;6.686;2022-10-22T12:46:37;0.65;;;0.50;;
57593;SDS011;43423;46.510;6.686;2022-10-22T12:49:05;3.40;;;0.50;;
57593;SDS011;43423;46.510;6.686;2022-10-22T12:51:35;1.52;;;0.77;;
57593;SDS011;43423;46.510;6.686;2022-10-22T12:54:05;1.73;;;0.50;;
57593;SDS011;43423;46.510;6.686;2022-10-22T12:56:33;1.95;;;0.50;;
57593;SDS011;43423;46.510;6.686;2022-10-22T12:59:02;1.85;;;0.43;;
57593;SDS011;43423;46.510;6.686;2022-10-22T13:01:38;0.40;;;0.40;;
57593;SDS011;43423;46.510;6.686;2022-10-22T13:04:14;1.35;;;0.52;;
57593;SDS011;43423;46.510;6.686;2022-10-22T13:06:49;1.17;;;0.65;;
57593;SDS011;43423;46.510;6.686;2022-10-22T13:09:18;1.23;;;0.57;;
57593;SDS011;43423;46.510;6.686;2022-10-22T13:11:51;1.00;;;0.52;;
57593;SDS011;43423;46.510;6.686;2022-10-22T13:14:28;0.50;;;0.50;;
57593;SDS011;43423;46.510;6.686;2022-10-22T13:19:44;0.73;;;0.65;;
57593;SDS011;43423;46.510;6.686;2022-10-22T13:22:23;0.82;;;0.80;;
57593;SDS011;43423;46.510;6.686;2022-10-22T13:27:47;1.30;;;0.60;;
57593;SDS011;43423;46.510;6.686;2022-10-22T13:32:51;3.35;;;0.73;;
57593;SDS011;43423;46.510;6.686;2022-10-22T13:35:20;2.03;;;0.80;;
57593;SDS011;43423;46.510;6.686;2022-10-22T13:37:48;1.05;;;0.70;;
57593;SDS011;43423;46.510;6.686;2022-10-22T13:40:14;0.95;;;0.70;;
57593;SDS011;43423;46.510;6.686;2022-10-22T13:42:39;1.70;;;0.63;;
57593;SDS011;43423;46.510;6.686;2022-10-22T13:45:05;1.45;;;0.80;;
57593;SDS011;43423;46.510;6.686;2022-10-22T13:47:31;2.33;;;0.60;;
57593;SDS011;43423;46.510;6.686;2022-10-22T13:49:58;1.52;;;0.90;;
57593;SDS011;43423;46.510;6.686;2022-10-22T13:52:27;3.08;;;0.63;;
57593;SDS011;43423;46.510;6.686;2022-10-22T13:55:21;0.98;;;0.70;;
57593;SDS011;43423;46.510;6.686;2022-10-22T13:57:51;1.98;;;0.60;;
57593;SDS011;43423;46.510;6.686;2022-10-22T14:00:20;2.83;;;0.50;;
57593;SDS011;43423;46.510;6.686;2022-10-22T14:02:51;0.63;;;0.60;;
57593;SDS011;43423;46.510;6.686;2022-10-22T14:05:18;1.27;;;0.60;;
57593;SDS011;43423;46.510;6.686;2022-10-22T14:07:44;2.88;;;0.55;;
57593;SDS011;43423;46.510;6.686;2022-10-22T14:10:21;0.50;;;0.30;;
57593;SDS011;43423;46.510;6.686;2022-10-22T14:12:47;1.50;;;0.60;;
57593;SDS011;43423;46.510;6.686;2022-10-22T14:15:14;0.63;;;0.60;;
57593;SDS011;43423;46.510;6.686;2022-10-22T14:17:48;2.17;;;0.52;;
57593;SDS011;43423;46.510;6.686;2022-10-22T14:20:19;2.05;;;0.85;;
57593;SDS011;43423;46.510;6.686;2022-10-22T14:22:48;1.02;;;0.40;;
57593;SDS011;43423;46.510;6.686;2022-10-22T14:25:15;0.93;;;0.45;;
57593;SDS011;43423;46.510;6.686;2022-10-22T14:27:42;0.80;;;0.40;;
57593;SDS011;43423;46.510;6.686;2022-10-22T14:30:11;0.90;;;0.50;;
57593;SDS011;43423;46.510;6.686;2022-10-22T14:32:38;0.70;;;0.50;;
57593;SDS011;43423;46.510;6.686;2022-10-22T14:35:04;1.90;;;0.50;;
57593;SDS011;43423;46.510;6.686;2022-10-22T14:37:29;0.60;;;0.40;;
57593;SDS011;43423;46.510;6.686;2022-10-22T14:39:55;0.30;;;0.30;;
57593;SDS011;43423;46.510;6.686;2022-10-22T14:42:25;0.73;;;0.40;;
57593;SDS011;43423;46.510;6.686;2022-10-22T14:44:52;4.88;;;0.50;;
57593;SDS011;43423;46.510;6.686;2022-10-22T14:47:17;0.65;;;0.50;;
57593;SDS011;43423;46.510;6.686;2022-10-22T14:49:43;0.70;;;0.40;;
57593;SDS011;43423;46.510;6.686;2022-10-22T14:52:08;0.85;;;0.22;;
57593;SDS011;43423;46.510;6.686;2022-10-22T14:54:34;1.40;;;0.38;;
57593;SDS011;43423;46.510;6.686;2022-10-22T14:57:00;0.68;;;0.32;;
57593;SDS011;43423;46.510;6.686;2022-10-22T14:59:27;0.90;;;0.40;;
57593;SDS011;43423;46.510;6.686;2022-10-22T15:01:52;0.25;;;0.25;;
57593;SDS011;43423;46.510;6.686;2022-10-22T15:04:18;1.30;;;0.40;;
57593;SDS011;43423;46.510;6.686;2022-10-22T15:06:43;3.28;;;1.20;;
57593;SDS011;43423;46.510;6.686;2022-10-22T15:09:09;1.40;;;0.45;;
57593;SDS011;43423;46.510;6.686;2022-10-22T15:11:34;0.70;;;0.40;;
57593;SDS011;43423;46.510;6.686;2022-10-22T15:14:00;0.70;;;0.47;;
57593;SDS011;43423;46.510;6.686;2022-10-22T15:16:25;1.23;;;0.50;;
57593;SDS011;43423;46.510;6.686;2022-10-22T15:18:51;0.40;;;0.40;;
57593;SDS011;43423;46.510;6.686;2022-10-22T15:21:18;0.82;;;0.40;;
57593;SDS011;43423;46.510;6.686;2022-10-22T15:23:45;1.02;;;0.45;;
57593;SDS011;43423;46.510;6.686;2022-10-22T15:26:11;2.63;;;0.57;;
57593;SDS011;43423;46.510;6.686;2022-10-22T15:28:38;1.38;;;0.75;;
57593;SDS011;43423;46.510;6.686;2022-10-22T15:31:04;0.55;;;0.40;;
57593;SDS011;43423;46.510;6.686;2022-10-22T15:33:31;1.05;;;0.35;;
57593;SDS011;43423;46.510;6.686;2022-10-22T15:35:56;0.55;;;0.55;;
57593;SDS011;43423;46.510;6.686;2022-10-22T15:38:26;1.52;;;0.40;;
57593;SDS011;43423;46.510;6.686;2022-10-22T15:41:02;1.10;;;0.40;;
57593;SDS011;43423;46.510;6.686;2022-10-22T15:43:29;0.55;;;0.40;;
57593;SDS011;43423;46.510;6.686;2022-10-22T15:48:52;1.70;;;0.60;;
57593;SDS011;43423;46.510;6.686;2022-10-22T15:51:17;1.40;;;0.40;;
57593;SDS011;43423;46.510;6.686;2022-10-22T15:53:51;0.50;;;0.40;;
57593;SDS011;43423;46.510;6.686;2022-10-22T15:56:22;1.10;;;0.50;;
57593;SDS011;43423;46.510;6.686;2022-10-22T15:58:58;3.22;;;0.50;;
57593;SDS011;43423;46.510;6.686;2022-10-22T16:01:26;1.70;;;0.50;;
57593;SDS011;43423;46.510;6.686;2022-10-22T16:03:52;2.72;;;0.60;;
57593;SDS011;43423;46.510;6.686;2022-10-22T16:06:28;1.58;;;0.60;;
57593;SDS011;43423;46.510;6.686;2022-10-22T16:08:58;0.50;;;0.50;;
57593;SDS011;43423;46.510;6.686;2022-10-22T16:11:26;0.43;;;0.40;;
57593;SDS011;43423;46.510;6.686;2022-10-22T16:13:53;2.58;;;0.50;;
57593;SDS011;43423;46.510;6.686;2022-10-22T16:16:24;6.95;;;0.60;;
57593;SDS011;43423;46.510;6.686;2022-10-22T16:18:52;1.40;;;0.90;;
57593;SDS011;43423;46.510;6.686;2022-10-22T16:21:18;2.20;;;0.68;;
57593;SDS011;43423;46.510;6.686;2022-10-22T16:23:45;1.25;;;0.65;;
57593;SDS011;43423;46.510;6.686;2022-10-22T16:26:11;2.05;;;0.60;;
57593;SDS011;43423;46.510;6.686;2022-10-22T16:28:39;0.85;;;0.52;;
57593;SDS011;43423;46.510;6.686;2022-10-22T16:31:06;0.85;;;0.50;;
57593;SDS011;43423;46.510;6.686;2022-10-22T16:33:34;1.55;;;0.60;;
57593;SDS011;43423;46.510;6.686;2022-10-22T16:36:00;1.45;;;0.75;;
57593;SDS011;43423;46.510;6.686;2022-10-22T16:38:26;3.72;;;0.70;;
57593;SDS011;43423;46.510;6.686;2022-10-22T16:40:52;2.38;;;0.55;;
57593;SDS011;43423;46.510;6.686;2022-10-22T16:43:18;1.05;;;0.95;;
57593;SDS011;43423;46.510;6.686;2022-10-22T16:45:47;2.45;;;0.68;;
57593;SDS011;43423;46.510;6.686;2022-10-22T16:48:14;2.80;;;0.77;;
57593;SDS011;43423;46.510;6.686;2022-10-22T16:50:40;2.50;;;1.08;;
57593;SDS011;43423;46.510;6.686;2022-10-22T16:53:06;4.10;;;0.90;;
57593;SDS011;43423;46.510;6.686;2022-10-22T16:55:34;1.30;;;0.90;;
57593;SDS011;43423;46.510;6.686;2022-10-22T16:58:00;2.08;;;0.80;;
57593;SDS011;43423;46.510;6.686;2022-10-22T17:00:26;1.73;;;0.90;;
57593;SDS011;43423;46.510;6.686;2022-10-22T17:02:51;2.45;;;0.90;;
57593;SDS011;43423;46.510;6.686;2022-10-22T17:05:17;1.45;;;0.93;;
57593;SDS011;43423;46.510;6.686;2022-10-22T17:07:43;3.92;;;1.30;;